sensor_id;sensor_type;location;lat;lon;timestamp;pressure;altitude;pressure_sealevel;temperature;humidity
67697;BME280;54486;51.442;6.778;2023-04-06T00:01:14;101655.50;;;3.59;73.65
67697;BME280;54486;51.442;6.778;2023-04-06T00:03:41;101657.13;;;3.57;75.30
67697;BME280;54486;51.442;6.778;2023-04-06T00:06:09;101650.13;;;3.53;75.36
67697;BME280;54486;51.442;6.778;2023-04-06T00:08:36;101651.75;;;3.51;75.83
67697;BME280;54486;51.442;6.778;2023-04-06T00:11:03;101643.00;;;3.46;74.56
67697;BME280;54486;51.442;6.778;2023-04-06T00:13:31;101648.84;;;3.42;74.56
67697;BME280;54486;51.442;6.778;2023-04-06T00:15:58;101643.66;;;3.41;74.73
67697;BME280;54486;51.442;6.778;2023-04-06T00:18:25;101644.53;;;3.41;74.75
67697;BME280;54486;51.442;6.778;2023-04-06T00:20:53;101637.53;;;3.39;75.62
67697;BME280;54486;51.442;6.778;2023-04-06T00:23:21;101640.03;;;3.36;75.42
67697;BME280;54486;51.442;6.778;2023-04-06T00:25:49;101639.13;;;3.35;75.95
67697;BME280;54486;51.442;6.778;2023-04-06T00:28:15;101633.75;;;3.29;77.05
67697;BME280;54486;51.442;6.778;2023-04-06T00:30:42;101637.78;;;3.21;77.42
67697;BME280;54486;51.442;6.778;2023-04-06T00:33:09;101640.38;;;3.21;76.33
67697;BME280;54486;51.442;6.778;2023-04-06T00:35:36;101640.38;;;3.21;77.02
67697;BME280;54486;51.442;6.778;2023-04-06T00:38:04;101636.88;;;3.19;75.50
67697;BME280;54486;51.442;6.778;2023-04-06T00:40:32;101628.16;;;3.17;75.33
67697;BME280;54486;51.442;6.778;2023-04-06T00:42:59;101635.00;;;3.15;75.86
67697;BME280;54486;51.442;6.778;2023-04-06T00:45:26;101626.28;;;3.13;75.42
67697;BME280;54486;51.442;6.778;2023-04-06T00:47:53;101629.63;;;3.09;75.59
67697;BME280;54486;51.442;6.778;2023-04-06T00:50:20;101620.91;;;3.07;75.96
67697;BME280;54486;51.442;6.778;2023-04-06T00:52:47;101623.47;;;3.05;75.87
67697;BME280;54486;51.442;6.778;2023-04-06T00:55:16;101622.59;;;3.05;76.27
67697;BME280;54486;51.442;6.778;2023-04-06T00:57:46;101622.34;;;2.99;77.04
67697;BME280;54486;51.442;6.778;2023-04-06T01:00:14;101613.81;;;3.00;77.59
67697;BME280;54486;51.442;6.778;2023-04-06T01:02:42;101612.84;;;2.98;77.07
67697;BME280;54486;51.442;6.778;2023-04-06T01:05:12;101613.66;;;2.97;77.20
67697;BME280;54486;51.442;6.778;2023-04-06T01:07:39;101607.47;;;2.92;76.72
67697;BME280;54486;51.442;6.778;2023-04-06T01:10:07;101603.09;;;2.89;77.23
67697;BME280;54486;51.442;6.778;2023-04-06T01:12:34;101599.53;;;2.86;77.42
67697;BME280;54486;51.442;6.778;2023-04-06T01:15:04;101594.28;;;2.83;77.02
67697;BME280;54486;51.442;6.778;2023-04-06T01:17:32;101597.75;;;2.85;76.24
67697;BME280;54486;51.442;6.778;2023-04-06T01:20:00;101596.84;;;2.83;76.45
67697;BME280;54486;51.442;6.778;2023-04-06T01:22:28;101593.50;;;2.85;75.49
67697;BME280;54486;51.442;6.778;2023-04-06T01:24:55;101590.22;;;2.89;74.82
67697;BME280;54486;51.442;6.778;2023-04-06T01:27:25;101585.94;;;2.90;74.63
67697;BME280;54486;51.442;6.778;2023-04-06T01:29:55;101584.41;;;2.95;73.96
67697;BME280;54486;51.442;6.778;2023-04-06T01:32:22;101584.63;;;3.01;71.79
67697;BME280;54486;51.442;6.778;2023-04-06T01:34:49;101577.94;;;3.06;71.09
67697;BME280;54486;51.442;6.778;2023-04-06T01:37:17;101579.88;;;3.13;71.79
67697;BME280;54486;51.442;6.778;2023-04-06T01:39:44;101579.19;;;3.17;71.05
67697;BME280;54486;51.442;6.778;2023-04-06T01:42:12;101578.47;;;3.21;70.54
67697;BME280;54486;51.442;6.778;2023-04-06T01:44:39;101573.41;;;3.24;69.99
67697;BME280;54486;51.442;6.778;2023-04-06T01:47:08;101571.75;;;3.26;69.87
67697;BME280;54486;51.442;6.778;2023-04-06T01:49:35;101567.44;;;3.25;70.08
67697;BME280;54486;51.442;6.778;2023-04-06T01:52:02;101562.28;;;3.25;69.85
67697;BME280;54486;51.442;6.778;2023-04-06T01:54:30;101560.53;;;3.24;69.91
67697;BME280;54486;51.442;6.778;2023-04-06T01:56:57;101575.19;;;3.25;70.00
67697;BME280;54486;51.442;6.778;2023-04-06T01:59:24;101571.66;;;3.23;69.97
67697;BME280;54486;51.442;6.778;2023-04-06T02:01:53;101572.53;;;3.24;69.78
67697;BME280;54486;51.442;6.778;2023-04-06T02:04:20;101567.38;;;3.24;69.50
67697;BME280;54486;51.442;6.778;2023-04-06T02:06:48;101563.00;;;3.21;69.22
67697;BME280;54486;51.442;6.778;2023-04-06T02:09:14;101562.19;;;3.22;69.31
67697;BME280;54486;51.442;6.778;2023-04-06T02:11:42;101563.13;;;3.26;69.18
67697;BME280;54486;51.442;6.778;2023-04-06T02:14:09;101568.25;;;3.24;69.40
67697;BME280;54486;51.442;6.778;2023-04-06T02:16:36;101563.09;;;3.24;69.58
67697;BME280;54486;51.442;6.778;2023-04-06T02:19:04;101564.00;;;3.25;68.84
67697;BME280;54486;51.442;6.778;2023-04-06T02:21:31;101559.72;;;3.25;68.82
67697;BME280;54486;51.442;6.778;2023-04-06T02:23:59;101561.44;;;3.26;68.76
67697;BME280;54486;51.442;6.778;2023-04-06T02:26:26;101559.72;;;3.25;69.28
67697;BME280;54486;51.442;6.778;2023-04-06T02:28:53;101560.47;;;3.22;69.22
67697;BME280;54486;51.442;6.778;2023-04-06T02:31:20;101557.94;;;3.24;69.19
67697;BME280;54486;51.442;6.778;2023-04-06T02:33:47;101551.13;;;3.26;69.32
67697;BME280;54486;51.442;6.778;2023-04-06T02:36:15;101541.75;;;3.28;68.35
67697;BME280;54486;51.442;6.778;2023-04-06T02:38:41;101542.69;;;3.30;68.67
67697;BME280;54486;51.442;6.778;2023-04-06T02:41:08;101544.38;;;3.30;68.83
67697;BME280;54486;51.442;6.778;2023-04-06T02:43:35;101546.91;;;3.28;68.79
67697;BME280;54486;51.442;6.778;2023-04-06T02:46:02;101544.25;;;3.25;68.87
67697;BME280;54486;51.442;6.778;2023-04-06T02:48:30;101544.25;;;3.25;68.38
67697;BME280;54486;51.442;6.778;2023-04-06T02:50:57;101545.88;;;3.23;69.35
67697;BME280;54486;51.442;6.778;2023-04-06T02:53:24;101549.28;;;3.22;69.27
67697;BME280;54486;51.442;6.778;2023-04-06T02:55:51;101551.00;;;3.22;69.63
67697;BME280;54486;51.442;6.778;2023-04-06T02:58:19;101542.25;;;3.18;69.53
67697;BME280;54486;51.442;6.778;2023-04-06T03:00:46;101536.16;;;3.16;68.92
67697;BME280;54486;51.442;6.778;2023-04-06T03:03:13;101536.13;;;3.14;69.21
67697;BME280;54486;51.442;6.778;2023-04-06T03:05:40;101535.25;;;3.14;70.00
67697;BME280;54486;51.442;6.778;2023-04-06T03:08:07;101536.91;;;3.12;70.19
67697;BME280;54486;51.442;6.778;2023-04-06T03:10:34;101536.91;;;3.12;69.12
67697;BME280;54486;51.442;6.778;2023-04-06T03:13:02;101537.72;;;3.11;69.67
67697;BME280;54486;51.442;6.778;2023-04-06T03:15:29;101533.38;;;3.10;69.89
67697;BME280;54486;51.442;6.778;2023-04-06T03:17:58;101525.59;;;3.08;69.30
67697;BME280;54486;51.442;6.778;2023-04-06T03:20:26;101531.63;;;3.09;69.63
67697;BME280;54486;51.442;6.778;2023-04-06T03:22:53;101536.78;;;3.09;69.37
67697;BME280;54486;51.442;6.778;2023-04-06T03:25:20;101536.72;;;3.07;69.66
67697;BME280;54486;51.442;6.778;2023-04-06T03:27:47;101532.53;;;3.09;69.19
67697;BME280;54486;51.442;6.778;2023-04-06T03:30:14;101538.53;;;3.10;69.00
67697;BME280;54486;51.442;6.778;2023-04-06T03:32:43;101534.03;;;3.04;69.35
67697;BME280;54486;51.442;6.778;2023-04-06T03:35:12;101528.88;;;3.04;69.23
67697;BME280;54486;51.442;6.778;2023-04-06T03:37:39;101536.63;;;3.04;69.75
67697;BME280;54486;51.442;6.778;2023-04-06T03:40:06;101536.59;;;3.03;69.40
67697;BME280;54486;51.442;6.778;2023-04-06T03:42:33;101534.81;;;3.02;69.68
67697;BME280;54486;51.442;6.778;2023-04-06T03:45:00;101535.63;;;3.01;69.61
67697;BME280;54486;51.442;6.778;2023-04-06T03:47:27;101538.22;;;3.01;69.41
67697;BME280;54486;51.442;6.778;2023-04-06T03:49:55;101529.56;;;2.99;70.24
67697;BME280;54486;51.442;6.778;2023-04-06T03:52:23;101530.47;;;3.01;69.58
67697;BME280;54486;51.442;6.778;2023-04-06T03:54:50;101524.50;;;3.02;69.85
67697;BME280;54486;51.442;6.778;2023-04-06T03:57:17;101528.78;;;3.01;69.74
67697;BME280;54486;51.442;6.778;2023-04-06T03:59:44;101527.91;;;3.01;69.82
67697;BME280;54486;51.442;6.778;2023-04-06T04:02:12;101526.97;;;2.99;69.32
67697;BME280;54486;51.442;6.778;2023-04-06T04:04:39;101518.44;;;3.00;69.59
67697;BME280;54486;51.442;6.778;2023-04-06T04:07:06;101521.00;;;3.00;68.89
67697;BME280;54486;51.442;6.778;2023-04-06T04:09:34;101527.09;;;3.02;69.07
67697;BME280;54486;51.442;6.778;2023-04-06T04:12:01;101529.66;;;3.02;68.95
67697;BME280;54486;51.442;6.778;2023-04-06T04:14:28;101524.50;;;3.02;68.46
67697;BME280;54486;51.442;6.778;2023-04-06T04:16:55;101528.00;;;3.04;69.00
67697;BME280;54486;51.442;6.778;2023-04-06T04:19:22;101526.28;;;3.03;69.25
67697;BME280;54486;51.442;6.778;2023-04-06T04:21:49;101525.28;;;2.99;69.48
67697;BME280;54486;51.442;6.778;2023-04-06T04:24:16;101523.41;;;2.95;68.59
67697;BME280;54486;51.442;6.778;2023-04-06T04:26:43;101528.50;;;2.94;69.10
67697;BME280;54486;51.442;6.778;2023-04-06T04:29:10;101528.50;;;2.94;69.43
67697;BME280;54486;51.442;6.778;2023-04-06T04:31:37;101525.22;;;2.98;69.33
67697;BME280;54486;51.442;6.778;2023-04-06T04:34:05;101526.16;;;3.00;68.78
67697;BME280;54486;51.442;6.778;2023-04-06T04:36:34;101526.16;;;3.00;69.29
67697;BME280;54486;51.442;6.778;2023-04-06T04:39:01;101527.88;;;2.99;69.29
67697;BME280;54486;51.442;6.778;2023-04-06T04:41:28;101530.47;;;3.01;69.47
67697;BME280;54486;51.442;6.778;2023-04-06T04:43:56;101529.56;;;2.99;68.46
67697;BME280;54486;51.442;6.778;2023-04-06T04:46:23;101527.91;;;3.01;68.28
67697;BME280;54486;51.442;6.778;2023-04-06T04:48:50;101528.69;;;2.98;69.23
67697;BME280;54486;51.442;6.778;2023-04-06T04:51:17;101531.31;;;3.00;69.69
67697;BME280;54486;51.442;6.778;2023-04-06T04:53:44;101520.22;;;3.02;68.83
67697;BME280;54486;51.442;6.778;2023-04-06T04:56:11;101519.47;;;3.05;69.15
67697;BME280;54486;51.442;6.778;2023-04-06T04:58:38;101516.97;;;3.08;68.14
67697;BME280;54486;51.442;6.778;2023-04-06T05:01:06;101522.25;;;3.11;68.27
67697;BME280;54486;51.442;6.778;2023-04-06T05:03:33;101517.28;;;3.17;67.92
67697;BME280;54486;51.442;6.778;2023-04-06T05:06:00;101510.38;;;3.16;67.54
67697;BME280;54486;51.442;6.778;2023-04-06T05:08:28;101518.34;;;3.22;67.05
67697;BME280;54486;51.442;6.778;2023-04-06T05:10:55;101518.44;;;3.25;67.00
67697;BME280;54486;51.442;6.778;2023-04-06T05:13:23;101520.19;;;3.26;67.86
67697;BME280;54486;51.442;6.778;2023-04-06T05:15:50;101527.22;;;3.30;67.26
67697;BME280;54486;51.442;6.778;2023-04-06T05:18:18;101528.03;;;3.29;67.65
67697;BME280;54486;51.442;6.778;2023-04-06T05:20:46;101521.28;;;3.33;67.10
67697;BME280;54486;51.442;6.778;2023-04-06T05:23:13;101525.66;;;3.35;66.85
67697;BME280;54486;51.442;6.778;2023-04-06T05:25:40;101523.19;;;3.38;67.00
67697;BME280;54486;51.442;6.778;2023-04-06T05:28:07;101529.28;;;3.40;67.32
67697;BME280;54486;51.442;6.778;2023-04-06T05:30:34;101521.03;;;3.50;66.20
67697;BME280;54486;51.442;6.778;2023-04-06T05:33:02;101527.91;;;3.51;66.22
67697;BME280;54486;51.442;6.778;2023-04-06T05:35:29;101522.84;;;3.54;65.83
67697;BME280;54486;51.442;6.778;2023-04-06T05:37:56;101521.22;;;3.56;66.08
67697;BME280;54486;51.442;6.778;2023-04-06T05:40:23;101526.47;;;3.59;65.64
67697;BME280;54486;51.442;6.778;2023-04-06T05:42:50;101521.41;;;3.62;65.08
67697;BME280;54486;51.442;6.778;2023-04-06T05:45:18;101518.94;;;3.65;65.52
67697;BME280;54486;51.442;6.778;2023-04-06T05:47:45;101521.59;;;3.68;65.43
67697;BME280;54486;51.442;6.778;2023-04-06T05:50:14;101532.03;;;3.71;65.85
67697;BME280;54486;51.442;6.778;2023-04-06T05:52:42;101532.13;;;3.74;65.23
67697;BME280;54486;51.442;6.778;2023-04-06T05:55:10;101528.72;;;3.76;65.21
67697;BME280;54486;51.442;6.778;2023-04-06T05:57:38;101527.06;;;3.78;65.60
67697;BME280;54486;51.442;6.778;2023-04-06T06:00:06;101525.44;;;3.80;65.89
67697;BME280;54486;51.442;6.778;2023-04-06T06:02:35;101527.16;;;3.81;65.79
67697;BME280;54486;51.442;6.778;2023-04-06T06:05:07;101522.09;;;3.84;65.45
67697;BME280;54486;51.442;6.778;2023-04-06T06:07:41;101517.88;;;3.86;65.25
67697;BME280;54486;51.442;6.778;2023-04-06T06:10:56;101518.88;;;3.91;65.10
67697;BME280;54486;51.442;6.778;2023-04-06T06:13:24;101522.59;;;3.99;64.82
67697;BME280;54486;51.442;6.778;2023-04-06T06:15:51;101514.09;;;4.03;64.75
67697;BME280;54486;51.442;6.778;2023-04-06T06:18:18;101515.16;;;4.09;64.06
67697;BME280;54486;51.442;6.778;2023-04-06T06:20:47;101510.16;;;4.14;64.44
67697;BME280;54486;51.442;6.778;2023-04-06T06:23:15;101516.31;;;4.19;63.64
67697;BME280;54486;51.442;6.778;2023-04-06T06:25:42;101511.31;;;4.25;63.61
67697;BME280;54486;51.442;6.778;2023-04-06T06:28:10;101514.06;;;4.30;63.34
67697;BME280;54486;51.442;6.778;2023-04-06T06:30:36;101518.59;;;4.38;63.09
67697;BME280;54486;51.442;6.778;2023-04-06T06:33:04;101523.94;;;4.44;62.52
67697;BME280;54486;51.442;6.778;2023-04-06T06:35:31;101521.72;;;4.56;61.86
67697;BME280;54486;51.442;6.778;2023-04-06T06:37:59;101522.75;;;4.61;61.66
67697;BME280;54486;51.442;6.778;2023-04-06T06:40:26;101521.16;;;4.66;61.98
67697;BME280;54486;51.442;6.778;2023-04-06T06:42:56;101521.31;;;4.72;61.97
67697;BME280;54486;51.442;6.778;2023-04-06T06:45:24;101526.69;;;4.78;62.33
67697;BME280;54486;51.442;6.778;2023-04-06T06:47:52;101517.38;;;4.85;60.33
67697;BME280;54486;51.442;6.778;2023-04-06T06:50:21;101516.19;;;5.04;61.04
67697;BME280;54486;51.442;6.778;2023-04-06T06:52:48;101519.63;;;5.04;61.49
67697;BME280;54486;51.442;6.778;2023-04-06T06:55:16;101519.75;;;5.09;60.57
67697;BME280;54486;51.442;6.778;2023-04-06T06:57:46;101515.75;;;5.20;60.30
67697;BME280;54486;51.442;6.778;2023-04-06T07:00:14;101510.81;;;5.29;59.65
67697;BME280;54486;51.442;6.778;2023-04-06T07:02:41;101509.28;;;5.37;59.40
67697;BME280;54486;51.442;6.778;2023-04-06T07:05:08;101506.16;;;5.50;59.39
67697;BME280;54486;51.442;6.778;2023-04-06T07:07:53;101497.78;;;5.60;58.11
67697;BME280;54486;51.442;6.778;2023-04-06T07:10:21;101500.94;;;5.83;57.49
67697;BME280;54486;51.442;6.778;2023-04-06T07:12:48;101501.03;;;5.86;58.07
67697;BME280;54486;51.442;6.778;2023-04-06T07:15:16;101500.44;;;5.98;57.95
67697;BME280;54486;51.442;6.778;2023-04-06T07:17:43;101497.16;;;6.05;57.14
67697;BME280;54486;51.442;6.778;2023-04-06T07:20:14;101495.66;;;6.16;56.98
67697;BME280;54486;51.442;6.778;2023-04-06T07:22:43;101494.13;;;6.24;57.07
67697;BME280;54486;51.442;6.778;2023-04-06T07:25:11;101487.44;;;6.35;56.94
67697;BME280;54486;51.442;6.778;2023-04-06T07:27:38;101487.84;;;6.53;56.02
67697;BME280;54486;51.442;6.778;2023-04-06T07:30:06;101495.19;;;6.75;54.24
67697;BME280;54486;51.442;6.778;2023-04-06T07:32:34;101489.47;;;6.93;55.63
67697;BME280;54486;51.442;6.778;2023-04-06T07:35:03;101498.22;;;6.98;54.23
67697;BME280;54486;51.442;6.778;2023-04-06T07:37:31;101492.28;;;7.04;53.68
67697;BME280;54486;51.442;6.778;2023-04-06T07:39:58;101494.13;;;7.11;54.79
67697;BME280;54486;51.442;6.778;2023-04-06T07:42:24;101495.88;;;7.12;54.00
67697;BME280;54486;51.442;6.778;2023-04-06T07:44:52;101484.75;;;7.19;53.14
67697;BME280;54486;51.442;6.778;2023-04-06T07:47:20;101492.69;;;7.28;54.06
67697;BME280;54486;51.442;6.778;2023-04-06T07:49:47;101496.31;;;7.36;53.55
67697;BME280;54486;51.442;6.778;2023-04-06T07:52:15;101485.19;;;7.44;53.49
67697;BME280;54486;51.442;6.778;2023-04-06T07:54:42;101479.34;;;7.56;53.37
67697;BME280;54486;51.442;6.778;2023-04-06T07:57:09;101481.28;;;7.69;52.86
67697;BME280;54486;51.442;6.778;2023-04-06T07:59:36;101477.97;;;7.78;53.26
67697;BME280;54486;51.442;6.778;2023-04-06T08:02:05;101483.34;;;7.91;52.25
67697;BME280;54486;51.442;6.778;2023-04-06T08:04:38;101480.16;;;8.11;51.90
67697;BME280;54486;51.442;6.778;2023-04-06T08:07:06;101485.50;;;8.20;51.46
67697;BME280;54486;51.442;6.778;2023-04-06T08:09:33;101475.31;;;8.35;49.96
67697;BME280;54486;51.442;6.778;2023-04-06T08:12:00;101473.72;;;8.46;50.33
67697;BME280;54486;51.442;6.778;2023-04-06T08:14:28;101477.31;;;8.54;50.08
67697;BME280;54486;51.442;6.778;2023-04-06T08:16:55;101477.44;;;8.66;50.15
67697;BME280;54486;51.442;6.778;2023-04-06T08:19:22;101478.34;;;8.71;49.65
67697;BME280;54486;51.442;6.778;2023-04-06T08:21:49;101477.63;;;8.84;49.41
67697;BME280;54486;51.442;6.778;2023-04-06T08:24:18;101482.84;;;8.84;49.92
67697;BME280;54486;51.442;6.778;2023-04-06T08:26:45;101469.06;;;8.91;50.00
67697;BME280;54486;51.442;6.778;2023-04-06T08:29:12;101477.81;;;8.99;49.92
67697;BME280;54486;51.442;6.778;2023-04-06T08:31:40;101465.66;;;8.98;48.06
67697;BME280;54486;51.442;6.778;2023-04-06T08:34:07;101470.94;;;9.08;48.35
67697;BME280;54486;51.442;6.778;2023-04-06T08:36:37;101465.81;;;9.14;47.90
67697;BME280;54486;51.442;6.778;2023-04-06T08:39:03;101461.63;;;9.32;47.92
67697;BME280;54486;51.442;6.778;2023-04-06T08:41:31;101461.69;;;9.38;48.17
67697;BME280;54486;51.442;6.778;2023-04-06T08:44:00;101461.81;;;9.50;46.06
67697;BME280;54486;51.442;6.778;2023-04-06T08:46:29;101457.59;;;9.69;45.91
67697;BME280;54486;51.442;6.778;2023-04-06T08:48:59;101461.16;;;9.83;45.80
67697;BME280;54486;51.442;6.778;2023-04-06T08:51:27;101455.91;;;9.80;46.56
67697;BME280;54486;51.442;6.778;2023-04-06T08:53:57;101451.59;;;9.84;46.45
67697;BME280;54486;51.442;6.778;2023-04-06T08:56:27;101456.00;;;9.92;46.71
67697;BME280;54486;51.442;6.778;2023-04-06T08:58:55;101447.38;;;10.05;45.62
67697;BME280;54486;51.442;6.778;2023-04-06T09:01:27;101450.94;;;10.14;46.54
67697;BME280;54486;51.442;6.778;2023-04-06T09:03:58;101447.56;;;10.30;45.21
67697;BME280;54486;51.442;6.778;2023-04-06T09:06:27;101439.75;;;10.43;45.98
67697;BME280;54486;51.442;6.778;2023-04-06T09:08:54;101440.72;;;10.59;45.50
67697;BME280;54486;51.442;6.778;2023-04-06T09:11:22;101440.75;;;10.80;42.75
67697;BME280;54486;51.442;6.778;2023-04-06T09:13:51;101448.63;;;10.88;43.71
67697;BME280;54486;51.442;6.778;2023-04-06T09:16:19;101450.34;;;10.87;43.94
67697;BME280;54486;51.442;6.778;2023-04-06T09:18:47;101440.78;;;10.98;44.20
67697;BME280;54486;51.442;6.778;2023-04-06T09:21:16;101449.53;;;11.15;43.53
67697;BME280;54486;51.442;6.778;2023-04-06T09:23:44;101444.31;;;11.22;42.82
67697;BME280;54486;51.442;6.778;2023-04-06T09:26:17;101444.31;;;11.34;42.72
67697;BME280;54486;51.442;6.778;2023-04-06T09:28:49;101433.84;;;11.40;43.86
67697;BME280;54486;51.442;6.778;2023-04-06T09:31:24;101437.34;;;11.57;43.44
67697;BME280;54486;51.442;6.778;2023-04-06T09:33:53;101442.59;;;11.77;41.81
67697;BME280;54486;51.442;6.778;2023-04-06T09:36:28;101445.19;;;11.78;40.95
67697;BME280;54486;51.442;6.778;2023-04-06T09:38:59;101436.47;;;11.82;41.13
67697;BME280;54486;51.442;6.778;2023-04-06T09:41:33;101438.19;;;11.95;39.17
67697;BME280;54486;51.442;6.778;2023-04-06T09:44:07;101437.28;;;12.02;40.38
67697;BME280;54486;51.442;6.778;2023-04-06T09:49:27;101430.28;;;12.07;39.86
67697;BME280;54486;51.442;6.778;2023-04-06T09:52:00;101443.34;;;12.13;39.53
67697;BME280;54486;51.442;6.778;2023-04-06T09:54:31;101431.16;;;12.06;39.56
67697;BME280;54486;51.442;6.778;2023-04-06T09:57:19;101426.81;;;12.05;39.78
67697;BME280;54486;51.442;6.778;2023-04-06T10:00:08;101423.28;;;12.18;41.21
67697;BME280;54486;51.442;6.778;2023-04-06T10:02:45;101426.72;;;12.33;41.22
67697;BME280;54486;51.442;6.778;2023-04-06T10:07:46;101419.63;;;12.56;40.02
67697;BME280;54486;51.442;6.778;2023-04-06T10:10:28;101416.16;;;12.57;38.86
67697;BME280;54486;51.442;6.778;2023-04-06T10:12:56;101412.63;;;12.58;38.98
67697;BME280;54486;51.442;6.778;2023-04-06T10:15:23;101416.09;;;12.63;40.00
67697;BME280;54486;51.442;6.778;2023-04-06T10:17:51;101410.84;;;12.69;38.83
67697;BME280;54486;51.442;6.778;2023-04-06T10:20:53;101413.44;;;12.69;39.24
67697;BME280;54486;51.442;6.778;2023-04-06T10:23:36;101418.66;;;12.70;40.24
67697;BME280;54486;51.442;6.778;2023-04-06T10:26:13;101423.03;;;12.76;40.23
67697;BME280;54486;51.442;6.778;2023-04-06T10:28:42;101421.19;;;12.89;39.22
67697;BME280;54486;51.442;6.778;2023-04-06T10:31:10;101422.03;;;12.89;39.67
67697;BME280;54486;51.442;6.778;2023-04-06T10:33:38;101414.16;;;12.95;39.28
67697;BME280;54486;51.442;6.778;2023-04-06T10:36:12;101422.81;;;13.09;39.79
67697;BME280;54486;51.442;6.778;2023-04-06T10:38:41;101419.22;;;13.22;39.72
67697;BME280;54486;51.442;6.778;2023-04-06T10:41:10;101426.03;;;13.45;39.01
67697;BME280;54486;51.442;6.778;2023-04-06T10:43:40;101412.16;;;13.34;38.93
67697;BME280;54486;51.442;6.778;2023-04-06T10:46:09;101417.38;;;13.31;39.42
67697;BME280;54486;51.442;6.778;2023-04-06T10:48:40;101414.78;;;13.34;40.05
67697;BME280;54486;51.442;6.778;2023-04-06T10:53:38;101414.78;;;13.27;40.68
67697;BME280;54486;51.442;6.778;2023-04-06T10:56:16;101425.34;;;13.21;40.46
67697;BME280;54486;51.442;6.778;2023-04-06T10:58:52;101421.09;;;12.99;39.49
67697;BME280;54486;51.442;6.778;2023-04-06T11:01:21;101414.97;;;13.03;40.34
67697;BME280;54486;51.442;6.778;2023-04-06T11:03:53;101416.63;;;13.18;40.83
67697;BME280;54486;51.442;6.778;2023-04-06T11:06:22;101415.72;;;13.23;40.24
67697;BME280;54486;51.442;6.778;2023-04-06T11:08:50;101413.03;;;13.31;40.08
67697;BME280;54486;51.442;6.778;2023-04-06T11:11:19;101413.97;;;13.22;41.44
67697;BME280;54486;51.442;6.778;2023-04-06T11:16:18;101404.28;;;13.34;41.94
67697;BME280;54486;51.442;6.778;2023-04-06T11:18:58;101409.41;;;13.44;41.16
67697;BME280;54486;51.442;6.778;2023-04-06T11:21:45;101404.03;;;13.62;41.99
67697;BME280;54486;51.442;6.778;2023-04-06T11:24:16;101415.22;;;13.78;40.93
67697;BME280;54486;51.442;6.778;2023-04-06T11:26:58;101406.50;;;13.73;40.57
67697;BME280;54486;51.442;6.778;2023-04-06T11:29:29;101409.09;;;13.76;40.54
67697;BME280;54486;51.442;6.778;2023-04-06T11:32:05;101404.78;;;13.75;41.76
67697;BME280;54486;51.442;6.778;2023-04-06T11:34:35;101400.31;;;13.80;42.21
67697;BME280;54486;51.442;6.778;2023-04-06T11:37:08;101394.06;;;13.93;42.85
67697;BME280;54486;51.442;6.778;2023-04-06T11:39:40;101391.38;;;13.98;41.99
67697;BME280;54486;51.442;6.778;2023-04-06T11:42:07;101383.47;;;14.02;41.85
67697;BME280;54486;51.442;6.778;2023-04-06T11:44:44;101408.31;;;13.68;42.32
67697;BME280;54486;51.442;6.778;2023-04-06T11:47:15;101400.06;;;13.17;43.43
67697;BME280;54486;51.442;6.778;2023-04-06T11:49:43;101394.81;;;13.17;44.70
67697;BME280;54486;51.442;6.778;2023-04-06T11:52:27;101397.41;;;13.19;44.90
67697;BME280;54486;51.442;6.778;2023-04-06T11:54:54;101394.69;;;13.28;45.90
67697;BME280;54486;51.442;6.778;2023-04-06T11:57:24;101396.41;;;13.31;45.72
67697;BME280;54486;51.442;6.778;2023-04-06T11:59:52;101400.75;;;13.35;46.07
67697;BME280;54486;51.442;6.778;2023-04-06T12:02:20;101401.56;;;13.46;46.23
67697;BME280;54486;51.442;6.778;2023-04-06T12:04:47;101395.41;;;13.47;46.60
67697;BME280;54486;51.442;6.778;2023-04-06T12:07:16;101395.34;;;13.54;45.22
67697;BME280;54486;51.442;6.778;2023-04-06T12:09:43;101391.75;;;13.64;44.73
67697;BME280;54486;51.442;6.778;2023-04-06T12:12:10;101387.22;;;13.80;45.90
67697;BME280;54486;51.442;6.778;2023-04-06T12:14:39;101401.06;;;13.91;43.36
67697;BME280;54486;51.442;6.778;2023-04-06T12:17:06;101381.97;;;13.80;43.73
67697;BME280;54486;51.442;6.778;2023-04-06T12:19:32;101391.56;;;13.84;43.23
67697;BME280;54486;51.442;6.778;2023-04-06T12:22:00;101382.00;;;13.77;43.53
67697;BME280;54486;51.442;6.778;2023-04-06T12:24:28;101391.50;;;13.86;43.06
67697;BME280;54486;51.442;6.778;2023-04-06T12:26:56;101386.19;;;13.92;41.90
67697;BME280;54486;51.442;6.778;2023-04-06T12:29:36;101387.06;;;13.94;42.48
67697;BME280;54486;51.442;6.778;2023-04-06T12:32:03;101383.50;;;13.99;43.58
67697;BME280;54486;51.442;6.778;2023-04-06T12:34:30;101390.25;;;14.18;43.32
67697;BME280;54486;51.442;6.778;2023-04-06T12:36:57;101392.22;;;14.01;42.71
67697;BME280;54486;51.442;6.778;2023-04-06T12:39:25;101383.81;;;13.69;43.44
67697;BME280;54486;51.442;6.778;2023-04-06T12:41:53;101385.75;;;13.50;44.23
67697;BME280;54486;51.442;6.778;2023-04-06T12:44:20;101396.22;;;13.55;44.26
67697;BME280;54486;51.442;6.778;2023-04-06T12:46:47;101383.81;;;13.69;43.98
67697;BME280;54486;51.442;6.778;2023-04-06T12:49:14;101381.13;;;13.78;44.54
67697;BME280;54486;51.442;6.778;2023-04-06T12:51:43;101382.00;;;13.77;42.77
67697;BME280;54486;51.442;6.778;2023-04-06T12:54:11;101383.72;;;13.79;44.29
67697;BME280;54486;51.442;6.778;2023-04-06T12:56:38;101387.22;;;13.80;43.50
67697;BME280;54486;51.442;6.778;2023-04-06T12:59:05;101387.22;;;13.80;43.80
67697;BME280;54486;51.442;6.778;2023-04-06T13:01:32;101384.59;;;13.78;43.55
67697;BME280;54486;51.442;6.778;2023-04-06T13:04:00;101385.63;;;13.64;43.66
67697;BME280;54486;51.442;6.778;2023-04-06T13:06:27;101375.28;;;13.50;45.33
67697;BME280;54486;51.442;6.778;2023-04-06T13:08:55;101387.53;;;13.47;44.53
67697;BME280;54486;51.442;6.778;2023-04-06T13:11:22;101378.88;;;13.42;44.98
67697;BME280;54486;51.442;6.778;2023-04-06T13:13:53;101375.44;;;13.31;45.03
67697;BME280;54486;51.442;6.778;2023-04-06T13:16:20;101376.50;;;13.13;46.34